sensor_id;sensor_type;location;lat;lon;timestamp;P1;durP1;ratioP1;P2;durP2;ratioP2
27489;SDS011;14925;51.026;13.752;2022-10-17T00:02:01;11.00;;;5.93;;
27489;SDS011;14925;51.026;13.752;2022-10-17T00:04:26;10.32;;;5.93;;
27489;SDS011;14925;51.026;13.752;2022-10-17T00:06:51;9.68;;;6.35;;
27489;SDS011;14925;51.026;13.752;2022-10-17T00:09:17;11.80;;;6.45;;
27489;SDS011;14925;51.026;13.752;2022-10-17T00:11:42;9.38;;;6.40;;
27489;SDS011;14925;51.026;13.752;2022-10-17T00:14:07;13.93;;;6.30;;
27489;SDS011;14925;51.026;13.752;2022-10-17T00:16:34;9.43;;;6.50;;
27489;SDS011;14925;51.026;13.752;2022-10-17T00:19:03;8.20;;;6.03;;
27489;SDS011;14925;51.026;13.752;2022-10-17T00:21:29;10.52;;;6.75;;
27489;SDS011;14925;51.026;13.752;2022-10-17T00:23:55;11.07;;;7.18;;
27489;SDS011;14925;51.026;13.752;2022-10-17T00:26:20;9.27;;;6.70;;
27489;SDS011;14925;51.026;13.752;2022-10-17T00:28:50;13.00;;;7.60;;
27489;SDS011;14925;51.026;13.752;2022-10-17T00:31:17;14.95;;;7.45;;
27489;SDS011;14925;51.026;13.752;2022-10-17T00:33:43;12.90;;;7.65;;
27489;SDS011;14925;51.026;13.752;2022-10-17T00:38:39;13.63;;;7.75;;
27489;SDS011;14925;51.026;13.752;2022-10-17T00:41:05;14.82;;;8.23;;
27489;SDS011;14925;51.026;13.752;2022-10-17T00:43:47;20.02;;;8.80;;
27489;SDS011;14925;51.026;13.752;2022-10-17T00:46:16;14.25;;;8.15;;
27489;SDS011;14925;51.026;13.752;2022-10-17T00:48:42;12.48;;;8.88;;
27489;SDS011;14925;51.026;13.752;2022-10-17T00:51:08;13.05;;;8.40;;
27489;SDS011;14925;51.026;13.752;2022-10-17T00:53:33;13.68;;;8.90;;
27489;SDS011;14925;51.026;13.752;2022-10-17T00:55:59;14.30;;;9.70;;
27489;SDS011;14925;51.026;13.752;2022-10-17T00:58:25;16.65;;;9.60;;
27489;SDS011;14925;51.026;13.752;2022-10-17T01:00:51;18.52;;;10.48;;
27489;SDS011;14925;51.026;13.752;2022-10-17T01:03:16;20.92;;;10.70;;
27489;SDS011;14925;51.026;13.752;2022-10-17T01:05:41;17.15;;;9.95;;
27489;SDS011;14925;51.026;13.752;2022-10-17T01:08:07;15.77;;;10.02;;
27489;SDS011;14925;51.026;13.752;2022-10-17T01:10:34;16.48;;;11.45;;
27489;SDS011;14925;51.026;13.752;2022-10-17T01:13:41;20.80;;;12.38;;
27489;SDS011;14925;51.026;13.752;2022-10-17T01:19:19;30.38;;;14.90;;
27489;SDS011;14925;51.026;13.752;2022-10-17T01:22:12;20.40;;;14.07;;
27489;SDS011;14925;51.026;13.752;2022-10-17T01:33:16;33.17;;;18.25;;
27489;SDS011;14925;51.026;13.752;2022-10-17T01:36:48;29.67;;;17.83;;
27489;SDS011;14925;51.026;13.752;2022-10-17T01:39:09;30.80;;;19.52;;
27489;SDS011;14925;51.026;13.752;2022-10-17T01:41:45;34.00;;;20.20;;
27489;SDS011;14925;51.026;13.752;2022-10-17T01:47:04;43.17;;;22.92;;
27489;SDS011;14925;51.026;13.752;2022-10-17T01:49:36;46.47;;;25.02;;
27489;SDS011;14925;51.026;13.752;2022-10-17T01:52:13;35.53;;;21.58;;
27489;SDS011;14925;51.026;13.752;2022-10-17T01:54:47;40.70;;;23.63;;
27489;SDS011;14925;51.026;13.752;2022-10-17T01:57:19;37.35;;;22.02;;
27489;SDS011;14925;51.026;13.752;2022-10-17T01:59:48;44.65;;;24.40;;
27489;SDS011;14925;51.026;13.752;2022-10-17T02:02:16;40.70;;;23.38;;
27489;SDS011;14925;51.026;13.752;2022-10-17T02:04:42;46.58;;;23.23;;
27489;SDS011;14925;51.026;13.752;2022-10-17T02:07:08;45.83;;;25.50;;
27489;SDS011;14925;51.026;13.752;2022-10-17T02:09:34;52.53;;;28.15;;
27489;SDS011;14925;51.026;13.752;2022-10-17T02:14:57;49.50;;;27.30;;
27489;SDS011;14925;51.026;13.752;2022-10-17T02:17:37;53.13;;;28.20;;
27489;SDS011;14925;51.026;13.752;2022-10-17T02:25:26;54.20;;;29.65;;
27489;SDS011;14925;51.026;13.752;2022-10-17T02:28:05;52.00;;;28.45;;
27489;SDS011;14925;51.026;13.752;2022-10-17T02:30:54;47.60;;;28.15;;
27489;SDS011;14925;51.026;13.752;2022-10-17T02:33:26;52.20;;;29.83;;
27489;SDS011;14925;51.026;13.752;2022-10-17T02:35:53;60.35;;;30.83;;
27489;SDS011;14925;51.026;13.752;2022-10-17T02:38:22;47.13;;;27.92;;
27489;SDS011;14925;51.026;13.752;2022-10-17T02:40:49;62.22;;;32.58;;
27489;SDS011;14925;51.026;13.752;2022-10-17T02:43:15;67.03;;;34.08;;
27489;SDS011;14925;51.026;13.752;2022-10-17T02:45:41;60.92;;;33.75;;
27489;SDS011;14925;51.026;13.752;2022-10-17T02:48:11;75.53;;;36.72;;
27489;SDS011;14925;51.026;13.752;2022-10-17T02:53:29;68.57;;;36.47;;
27489;SDS011;14925;51.026;13.752;2022-10-17T02:56:02;70.13;;;35.47;;
27489;SDS011;14925;51.026;13.752;2022-10-17T02:58:31;66.22;;;36.80;;
27489;SDS011;14925;51.026;13.752;2022-10-17T03:00:58;69.82;;;35.53;;
27489;SDS011;14925;51.026;13.752;2022-10-17T03:03:27;63.55;;;33.90;;
27489;SDS011;14925;51.026;13.752;2022-10-17T03:05:54;67.90;;;34.22;;
27489;SDS011;14925;51.026;13.752;2022-10-17T03:08:19;71.45;;;36.83;;
27489;SDS011;14925;51.026;13.752;2022-10-17T03:10:45;53.70;;;32.45;;
27489;SDS011;14925;51.026;13.752;2022-10-17T03:13:11;62.72;;;33.35;;
27489;SDS011;14925;51.026;13.752;2022-10-17T03:15:36;69.28;;;35.50;;
27489;SDS011;14925;51.026;13.752;2022-10-17T03:18:01;55.63;;;30.35;;
27489;SDS011;14925;51.026;13.752;2022-10-17T03:20:27;50.50;;;28.73;;
27489;SDS011;14925;51.026;13.752;2022-10-17T03:22:52;73.28;;;37.25;;
27489;SDS011;14925;51.026;13.752;2022-10-17T03:25:18;68.13;;;34.88;;
27489;SDS011;14925;51.026;13.752;2022-10-17T03:27:43;57.90;;;30.42;;
27489;SDS011;14925;51.026;13.752;2022-10-17T03:30:08;71.65;;;36.63;;
27489;SDS011;14925;51.026;13.752;2022-10-17T03:32:34;57.13;;;32.45;;
27489;SDS011;14925;51.026;13.752;2022-10-17T03:35:00;55.90;;;33.35;;
27489;SDS011;14925;51.026;13.752;2022-10-17T03:37:25;63.85;;;35.05;;
27489;SDS011;14925;51.026;13.752;2022-10-17T03:39:50;73.78;;;40.35;;
27489;SDS011;14925;51.026;13.752;2022-10-17T03:42:16;80.97;;;41.75;;
27489;SDS011;14925;51.026;13.752;2022-10-17T03:44:41;73.35;;;39.80;;
27489;SDS011;14925;51.026;13.752;2022-10-17T03:47:06;83.88;;;41.75;;
27489;SDS011;14925;51.026;13.752;2022-10-17T03:49:32;75.25;;;40.85;;
27489;SDS011;14925;51.026;13.752;2022-10-17T03:51:57;81.60;;;41.35;;
27489;SDS011;14925;51.026;13.752;2022-10-17T03:54:22;83.95;;;41.83;;
27489;SDS011;14925;51.026;13.752;2022-10-17T03:56:48;72.15;;;38.35;;
27489;SDS011;14925;51.026;13.752;2022-10-17T03:59:14;78.10;;;41.10;;
27489;SDS011;14925;51.026;13.752;2022-10-17T04:01:39;78.18;;;39.92;;
27489;SDS011;14925;51.026;13.752;2022-10-17T04:04:05;85.18;;;43.13;;
27489;SDS011;14925;51.026;13.752;2022-10-17T04:06:30;73.55;;;40.83;;
27489;SDS011;14925;51.026;13.752;2022-10-17T04:08:56;78.57;;;41.70;;
27489;SDS011;14925;51.026;13.752;2022-10-17T04:11:21;86.03;;;43.88;;
27489;SDS011;14925;51.026;13.752;2022-10-17T04:13:47;79.82;;;42.67;;
27489;SDS011;14925;51.026;13.752;2022-10-17T04:16:17;73.13;;;40.38;;
27489;SDS011;14925;51.026;13.752;2022-10-17T04:18:43;86.10;;;45.38;;
27489;SDS011;14925;51.026;13.752;2022-10-17T04:21:08;85.80;;;45.33;;
27489;SDS011;14925;51.026;13.752;2022-10-17T04:23:34;74.28;;;42.67;;
27489;SDS011;14925;51.026;13.752;2022-10-17T04:26:00;78.53;;;44.03;;
27489;SDS011;14925;51.026;13.752;2022-10-17T04:28:27;67.90;;;40.00;;
27489;SDS011;14925;51.026;13.752;2022-10-17T04:33:22;87.10;;;46.42;;
27489;SDS011;14925;51.026;13.752;2022-10-17T04:35:57;95.43;;;47.72;;
27489;SDS011;14925;51.026;13.752;2022-10-17T04:38:26;98.70;;;48.60;;
27489;SDS011;14925;51.026;13.752;2022-10-17T04:40:52;89.10;;;47.47;;
27489;SDS011;14925;51.026;13.752;2022-10-17T04:43:18;80.22;;;45.38;;
27489;SDS011;14925;51.026;13.752;2022-10-17T04:45:43;80.18;;;44.45;;
27489;SDS011;14925;51.026;13.752;2022-10-17T04:48:08;87.32;;;46.50;;
27489;SDS011;14925;51.026;13.752;2022-10-17T04:50:34;90.25;;;47.45;;
27489;SDS011;14925;51.026;13.752;2022-10-17T04:52:59;85.82;;;49.05;;
27489;SDS011;14925;51.026;13.752;2022-10-17T04:55:24;95.93;;;49.50;;
27489;SDS011;14925;51.026;13.752;2022-10-17T04:57:50;93.30;;;49.97;;
27489;SDS011;14925;51.026;13.752;2022-10-17T05:00:15;103.75;;;52.40;;
27489;SDS011;14925;51.026;13.752;2022-10-17T05:02:40;85.22;;;47.20;;
27489;SDS011;14925;51.026;13.752;2022-10-17T05:05:06;87.65;;;47.72;;
27489;SDS011;14925;51.026;13.752;2022-10-17T05:07:31;85.63;;;47.67;;
27489;SDS011;14925;51.026;13.752;2022-10-17T05:09:57;82.50;;;47.20;;
27489;SDS011;14925;51.026;13.752;2022-10-17T05:12:22;95.30;;;51.78;;
27489;SDS011;14925;51.026;13.752;2022-10-17T05:14:48;81.22;;;47.45;;
27489;SDS011;14925;51.026;13.752;2022-10-17T05:17:14;82.28;;;46.78;;
27489;SDS011;14925;51.026;13.752;2022-10-17T05:19:39;102.63;;;53.35;;
27489;SDS011;14925;51.026;13.752;2022-10-17T05:22:04;90.60;;;50.05;;
27489;SDS011;14925;51.026;13.752;2022-10-17T05:24:30;111.65;;;55.13;;
27489;SDS011;14925;51.026;13.752;2022-10-17T05:26:56;100.28;;;53.63;;
27489;SDS011;14925;51.026;13.752;2022-10-17T05:29:21;104.90;;;55.25;;
27489;SDS011;14925;51.026;13.752;2022-10-17T05:31:46;113.50;;;55.80;;
27489;SDS011;14925;51.026;13.752;2022-10-17T05:34:12;107.60;;;55.22;;
27489;SDS011;14925;51.026;13.752;2022-10-17T05:36:37;109.07;;;54.92;;
27489;SDS011;14925;51.026;13.752;2022-10-17T05:39:03;94.40;;;50.78;;
27489;SDS011;14925;51.026;13.752;2022-10-17T05:41:28;94.57;;;51.95;;
27489;SDS011;14925;51.026;13.752;2022-10-17T05:43:53;99.38;;;52.53;;
27489;SDS011;14925;51.026;13.752;2022-10-17T05:46:19;85.65;;;51.38;;
27489;SDS011;14925;51.026;13.752;2022-10-17T05:48:44;106.85;;;56.45;;
27489;SDS011;14925;51.026;13.752;2022-10-17T05:51:10;108.70;;;56.90;;
27489;SDS011;14925;51.026;13.752;2022-10-17T05:53:36;98.07;;;54.00;;
27489;SDS011;14925;51.026;13.752;2022-10-17T05:56:04;97.38;;;52.80;;
27489;SDS011;14925;51.026;13.752;2022-10-17T05:58:31;106.90;;;56.67;;
27489;SDS011;14925;51.026;13.752;2022-10-17T06:01:01;96.22;;;55.00;;
27489;SDS011;14925;51.026;13.752;2022-10-17T06:03:28;100.47;;;55.03;;
27489;SDS011;14925;51.026;13.752;2022-10-17T06:05:53;88.20;;;53.28;;
27489;SDS011;14925;51.026;13.752;2022-10-17T06:08:19;95.22;;;54.50;;
27489;SDS011;14925;51.026;13.752;2022-10-17T06:10:48;85.78;;;52.47;;
27489;SDS011;14925;51.026;13.752;2022-10-17T06:13:14;117.05;;;61.22;;
27489;SDS011;14925;51.026;13.752;2022-10-17T06:15:40;103.72;;;57.05;;
27489;SDS011;14925;51.026;13.752;2022-10-17T06:18:05;107.75;;;58.03;;
27489;SDS011;14925;51.026;13.752;2022-10-17T06:20:31;87.80;;;52.38;;
27489;SDS011;14925;51.026;13.752;2022-10-17T06:22:56;100.57;;;57.00;;
27489;SDS011;14925;51.026;13.752;2022-10-17T06:25:21;98.03;;;56.13;;
27489;SDS011;14925;51.026;13.752;2022-10-17T06:27:47;90.40;;;54.13;;
27489;SDS011;14925;51.026;13.752;2022-10-17T06:30:12;101.35;;;54.55;;
27489;SDS011;14925;51.026;13.752;2022-10-17T06:32:38;86.53;;;50.97;;
27489;SDS011;14925;51.026;13.752;2022-10-17T06:35:06;92.40;;;54.17;;
27489;SDS011;14925;51.026;13.752;2022-10-17T06:37:32;82.25;;;51.22;;
27489;SDS011;14925;51.026;13.752;2022-10-17T06:39:58;87.43;;;51.65;;
27489;SDS011;14925;51.026;13.752;2022-10-17T06:42:23;91.43;;;54.83;;
27489;SDS011;14925;51.026;13.752;2022-10-17T06:44:49;81.82;;;49.22;;
27489;SDS011;14925;51.026;13.752;2022-10-17T06:47:14;84.72;;;50.13;;
27489;SDS011;14925;51.026;13.752;2022-10-17T06:49:39;90.60;;;52.75;;
27489;SDS011;14925;51.026;13.752;2022-10-17T06:52:05;76.50;;;48.92;;
27489;SDS011;14925;51.026;13.752;2022-10-17T06:54:30;87.30;;;51.42;;
27489;SDS011;14925;51.026;13.752;2022-10-17T06:56:56;84.57;;;51.17;;
27489;SDS011;14925;51.026;13.752;2022-10-17T06:59:21;71.50;;;45.88;;
27489;SDS011;14925;51.026;13.752;2022-10-17T07:01:46;77.25;;;48.97;;
27489;SDS011;14925;51.026;13.752;2022-10-17T07:04:12;74.50;;;47.58;;
27489;SDS011;14925;51.026;13.752;2022-10-17T07:06:37;70.40;;;44.55;;
27489;SDS011;14925;51.026;13.752;2022-10-17T07:09:03;69.43;;;44.80;;
27489;SDS011;14925;51.026;13.752;2022-10-17T07:11:31;62.83;;;42.25;;
27489;SDS011;14925;51.026;13.752;2022-10-17T07:13:56;66.72;;;42.50;;
27489;SDS011;14925;51.026;13.752;2022-10-17T07:16:22;60.45;;;40.33;;
27489;SDS011;14925;51.026;13.752;2022-10-17T07:18:48;60.08;;;40.22;;
27489;SDS011;14925;51.026;13.752;2022-10-17T07:21:14;57.45;;;38.28;;
27489;SDS011;14925;51.026;13.752;2022-10-17T07:23:40;59.53;;;40.78;;
27489;SDS011;14925;51.026;13.752;2022-10-17T07:26:07;63.58;;;41.10;;
27489;SDS011;14925;51.026;13.752;2022-10-17T07:28:35;59.38;;;39.97;;
27489;SDS011;14925;51.026;13.752;2022-10-17T07:31:03;57.42;;;37.88;;
27489;SDS011;14925;51.026;13.752;2022-10-17T07:33:29;60.83;;;39.55;;
27489;SDS011;14925;51.026;13.752;2022-10-17T07:35:57;57.50;;;39.08;;
27489;SDS011;14925;51.026;13.752;2022-10-17T07:38:23;59.38;;;39.38;;
27489;SDS011;14925;51.026;13.752;2022-10-17T07:40:55;56.53;;;37.30;;
27489;SDS011;14925;51.026;13.752;2022-10-17T07:43:22;57.45;;;38.20;;
27489;SDS011;14925;51.026;13.752;2022-10-17T07:45:48;54.83;;;36.92;;
27489;SDS011;14925;51.026;13.752;2022-10-17T07:48:13;54.28;;;36.78;;
27489;SDS011;14925;51.026;13.752;2022-10-17T07:50:38;52.03;;;36.42;;
27489;SDS011;14925;51.026;13.752;2022-10-17T07:53:10;56.15;;;36.30;;
27489;SDS011;14925;51.026;13.752;2022-10-17T07:55:36;58.47;;;37.90;;
27489;SDS011;14925;51.026;13.752;2022-10-17T07:58:02;55.70;;;37.42;;
27489;SDS011;14925;51.026;13.752;2022-10-17T08:00:27;56.25;;;36.67;;
27489;SDS011;14925;51.026;13.752;2022-10-17T08:02:56;52.75;;;36.90;;
27489;SDS011;14925;51.026;13.752;2022-10-17T08:05:21;49.47;;;35.40;;
27489;SDS011;14925;51.026;13.752;2022-10-17T08:07:47;48.75;;;34.55;;
27489;SDS011;14925;51.026;13.752;2022-10-17T08:10:15;50.33;;;35.60;;
27489;SDS011;14925;51.026;13.752;2022-10-17T08:12:41;49.38;;;35.40;;
27489;SDS011;14925;51.026;13.752;2022-10-17T08:15:06;50.75;;;33.97;;
27489;SDS011;14925;51.026;13.752;2022-10-17T08:17:33;50.40;;;33.88;;
27489;SDS011;14925;51.026;13.752;2022-10-17T08:19:59;50.58;;;33.47;;
27489;SDS011;14925;51.026;13.752;2022-10-17T08:22:24;50.30;;;34.22;;
27489;SDS011;14925;51.026;13.752;2022-10-17T08:24:49;49.80;;;34.17;;
27489;SDS011;14925;51.026;13.752;2022-10-17T08:27:15;46.95;;;34.00;;
27489;SDS011;14925;51.026;13.752;2022-10-17T08:29:45;50.35;;;34.78;;
27489;SDS011;14925;51.026;13.752;2022-10-17T08:32:16;49.83;;;34.22;;
27489;SDS011;14925;51.026;13.752;2022-10-17T08:34:43;46.53;;;33.38;;
27489;SDS011;14925;51.026;13.752;2022-10-17T08:37:08;53.55;;;35.60;;
27489;SDS011;14925;51.026;13.752;2022-10-17T08:39:34;45.00;;;32.42;;
27489;SDS011;14925;51.026;13.752;2022-10-17T08:45:02;48.88;;;32.83;;
27489;SDS011;14925;51.026;13.752;2022-10-17T08:47:50;45.47;;;31.80;;
27489;SDS011;14925;51.026;13.752;2022-10-17T08:50:36;45.42;;;33.28;;
27489;SDS011;14925;51.026;13.752;2022-10-17T08:53:48;45.78;;;31.65;;
27489;SDS011;14925;51.026;13.752;2022-10-17T08:56:13;47.60;;;33.33;;
27489;SDS011;14925;51.026;13.752;2022-10-17T08:58:42;48.55;;;32.28;;
27489;SDS011;14925;51.026;13.752;2022-10-17T09:09:31;55.30;;;32.85;;
27489;SDS011;14925;51.026;13.752;2022-10-17T09:14:47;46.28;;;33.35;;
27489;SDS011;14925;51.026;13.752;2022-10-17T09:19:59;44.58;;;32.20;;
27489;SDS011;14925;51.026;13.752;2022-10-17T09:22:36;44.92;;;33.75;;
27489;SDS011;14925;51.026;13.752;2022-10-17T09:25:08;49.72;;;31.52;;
27489;SDS011;14925;51.026;13.752;2022-10-17T09:27:46;43.40;;;33.03;;
27489;SDS011;14925;51.026;13.752;2022-10-17T09:32:59;44.58;;;30.98;;
27489;SDS011;14925;51.026;13.752;2022-10-17T09:35:26;42.05;;;32.22;;
27489;SDS011;14925;51.026;13.752;2022-10-17T09:37:52;45.60;;;31.55;;
27489;SDS011;14925;51.026;13.752;2022-10-17T09:40:26;43.83;;;31.58;;
27489;SDS011;14925;51.026;13.752;2022-10-17T09:42:56;44.70;;;30.48;;
27489;SDS011;14925;51.026;13.752;2022-10-17T09:45:23;44.45;;;31.55;;
27489;SDS011;14925;51.026;13.752;2022-10-17T09:47:54;43.55;;;31.77;;
27489;SDS011;14925;51.026;13.752;2022-10-17T09:50:26;45.03;;;31.17;;
27489;SDS011;14925;51.026;13.752;2022-10-17T09:52:54;44.60;;;30.30;;
27489;SDS011;14925;51.026;13.752;2022-10-17T09:55:25;45.40;;;31.70;;
27489;SDS011;14925;51.026;13.752;2022-10-17T09:58:00;41.15;;;29.90;;
27489;SDS011;14925;51.026;13.752;2022-10-17T10:00:33;39.65;;;28.67;;
27489;SDS011;14925;51.026;13.752;2022-10-17T10:03:12;43.13;;;29.50;;
27489;SDS011;14925;51.026;13.752;2022-10-17T10:05:41;40.47;;;29.08;;
27489;SDS011;14925;51.026;13.752;2022-10-17T10:08:14;37.10;;;28.63;;
27489;SDS011;14925;51.026;13.752;2022-10-17T10:10:42;38.80;;;28.33;;
27489;SDS011;14925;51.026;13.752;2022-10-17T10:15:47;41.28;;;27.50;;
27489;SDS011;14925;51.026;13.752;2022-10-17T10:21:01;41.38;;;26.65;;
27489;SDS011;14925;51.026;13.752;2022-10-17T10:23:34;40.55;;;28.38;;
27489;SDS011;14925;51.026;13.752;2022-10-17T10:26:19;35.35;;;27.70;;
27489;SDS011;14925;51.026;13.752;2022-10-17T10:29:00;38.25;;;28.10;;
27489;SDS011;14925;51.026;13.752;2022-10-17T10:31:43;37.50;;;26.85;;
27489;SDS011;14925;51.026;13.752;2022-10-17T10:34:13;36.95;;;26.95;;
27489;SDS011;14925;51.026;13.752;2022-10-17T10:41:51;36.43;;;24.77;;
27489;SDS011;14925;51.026;13.752;2022-10-17T10:44:17;34.95;;;24.17;;
27489;SDS011;14925;51.026;13.752;2022-10-17T10:46:43;29.95;;;23.35;;
27489;SDS011;14925;51.026;13.752;2022-10-17T10:49:26;34.17;;;23.63;;
27489;SDS011;14925;51.026;13.752;2022-10-17T10:54:38;33.60;;;24.40;;
27489;SDS011;14925;51.026;13.752;2022-10-17T10:57:08;34.42;;;25.63;;
27489;SDS011;14925;51.026;13.752;2022-10-17T10:59:54;32.17;;;24.10;;
27489;SDS011;14925;51.026;13.752;2022-10-17T11:02:24;35.95;;;24.60;;
27489;SDS011;14925;51.026;13.752;2022-10-17T11:05:02;34.15;;;23.52;;
27489;SDS011;14925;51.026;13.752;2022-10-17T11:07:30;35.67;;;23.65;;
27489;SDS011;14925;51.026;13.752;2022-10-17T11:15:56;28.15;;;20.17;;
27489;SDS011;14925;51.026;13.752;2022-10-17T11:18:41;25.00;;;20.08;;
27489;SDS011;14925;51.026;13.752;2022-10-17T11:24:20;30.05;;;20.38;;
27489;SDS011;14925;51.026;13.752;2022-10-17T11:26:56;27.45;;;20.15;;
27489;SDS011;14925;51.026;13.752;2022-10-17T11:29:30;28.55;;;20.52;;
27489;SDS011;14925;51.026;13.752;2022-10-17T11:31:59;25.67;;;19.75;;
27489;SDS011;14925;51.026;13.752;2022-10-17T11:34:29;26.90;;;20.27;;
27489;SDS011;14925;51.026;13.752;2022-10-17T11:36:58;27.50;;;20.90;;
27489;SDS011;14925;51.026;13.752;2022-10-17T11:42:06;28.02;;;19.55;;
27489;SDS011;14925;51.026;13.752;2022-10-17T11:44:35;30.52;;;21.13;;
27489;SDS011;14925;51.026;13.752;2022-10-17T11:49:46;28.25;;;20.15;;
27489;SDS011;14925;51.026;13.752;2022-10-17T11:55:13;25.50;;;18.27;;
27489;SDS011;14925;51.026;13.752;2022-10-17T12:03:28;23.25;;;18.77;;
27489;SDS011;14925;51.026;13.752;2022-10-17T12:13:53;23.25;;;17.67;;
27489;SDS011;14925;51.026;13.752;2022-10-17T12:19:10;22.80;;;18.13;;
27489;SDS011;14925;51.026;13.752;2022-10-17T12:21:54;28.35;;;18.17;;
27489;SDS011;14925;51.026;13.752;2022-10-17T12:24:26;24.73;;;17.02;;
27489;SDS011;14925;51.026;13.752;2022-10-17T12:26:52;22.35;;;17.45;;
27489;SDS011;14925;51.026;13.752;2022-10-17T12:29:27;25.23;;;18.08;;
27489;SDS011;14925;51.026;13.752;2022-10-17T12:31:54;28.13;;;17.15;;
27489;SDS011;14925;51.026;13.752;2022-10-17T12:34:34;23.75;;;17.25;;
27489;SDS011;14925;51.026;13.752;2022-10-17T12:37:00;27.75;;;17.75;;
27489;SDS011;14925;51.026;13.752;2022-10-17T12:41:52;27.30;;;17.60;;
27489;SDS011;14925;51.026;13.752;2022-10-17T12:49:42;23.42;;;17.27;;
27489;SDS011;14925;51.026;13.752;2022-10-17T12:52:50;23.05;;;17.30;;
27489;SDS011;14925;51.026;13.752;2022-10-17T12:55:24;22.08;;;17.02;;
27489;SDS011;14925;51.026;13.752;2022-10-17T13:00:25;18.45;;;15.50;;
27489;SDS011;14925;51.026;13.752;2022-10-17T13:03:11;27.85;;;16.05;;
27489;SDS011;14925;51.026;13.752;2022-10-17T13:05:38;23.50;;;15.20;;
27489;SDS011;14925;51.026;13.752;2022-10-17T13:08:06;24.27;;;15.35;;
27489;SDS011;14925;51.026;13.752;2022-10-17T13:10:51;25.02;;;15.45;;
27489;SDS011;14925;51.026;13.752;2022-10-17T13:13:19;21.05;;;15.10;;
27489;SDS011;14925;51.026;13.752;2022-10-17T13:15:46;22.90;;;15.90;;
27489;SDS011;14925;51.026;13.752;2022-10-17T13:18:17;21.05;;;15.45;;
27489;SDS011;14925;51.026;13.752;2022-10-17T13:23:34;19.60;;;16.08;;
27489;SDS011;14925;51.026;13.752;2022-10-17T13:26:05;20.65;;;16.17;;
27489;SDS011;14925;51.026;13.752;2022-10-17T13:28:33;25.00;;;17.08;;
27489;SDS011;14925;51.026;13.752;2022-10-17T13:30:59;21.25;;;17.17;;
27489;SDS011;14925;51.026;13.752;2022-10-17T13:33:29;23.55;;;16.00;;
27489;SDS011;14925;51.026;13.752;2022-10-17T13:35:57;24.33;;;16.45;;
27489;SDS011;14925;51.026;13.752;2022-10-17T13:38:25;21.75;;;15.63;;
27489;SDS011;14925;51.026;13.752;2022-10-17T13:40:52;21.27;;;15.85;;
27489;SDS011;14925;51.026;13.752;2022-10-17T13:43:18;24.42;;;16.25;;
27489;SDS011;14925;51.026;13.752;2022-10-17T13:45:46;24.60;;;16.75;;
27489;SDS011;14925;51.026;13.752;2022-10-17T13:48:22;26.75;;;16.17;;
27489;SDS011;14925;51.026;13.752;2022-10-17T13:50:50;21.92;;;16.77;;
27489;SDS011;14925;51.026;13.752;2022-10-17T13:53:28;22.17;;;16.25;;
27489;SDS011;14925;51.026;13.752;2022-10-17T13:56:17;21.40;;;16.98;;
27489;SDS011;14925;51.026;13.752;2022-10-17T13:58:46;23.13;;;16.70;;
27489;SDS011;14925;51.026;13.752;2022-10-17T14:01:21;23.42;;;16.83;;
27489;SDS011;14925;51.026;13.752;2022-10-17T14:03:48;24.35;;;17.77;;
27489;SDS011;14925;51.026;13.752;2022-10-17T14:08:53;22.05;;;17.40;;
27489;SDS011;14925;51.026;13.752;2022-10-17T14:11:37;25.45;;;18.05;;
27489;SDS011;14925;51.026;13.752;2022-10-17T14:14:05;24.88;;;17.75;;
27489;SDS011;14925;51.026;13.752;2022-10-17T14:16:32;22.35;;;17.65;;
27489;SDS011;14925;51.026;13.752;2022-10-17T14:19:00;27.20;;;17.85;;
27489;SDS011;14925;51.026;13.752;2022-10-17T14:21:26;25.80;;;17.38;;
27489;SDS011;14925;51.026;13.752;2022-10-17T14:26:45;20.55;;;17.05;;
27489;SDS011;14925;51.026;13.752;2022-10-17T14:29:23;24.73;;;19.73;;
27489;SDS011;14925;51.026;13.752;2022-10-17T14:31:55;27.40;;;18.42;;
27489;SDS011;14925;51.026;13.752;2022-10-17T14:34:23;30.67;;;18.98;;
27489;SDS011;14925;51.026;13.752;2022-10-17T14:36:52;30.25;;;19.92;;
27489;SDS011;14925;51.026;13.752;2022-10-17T14:39:19;30.65;;;19.60;;
27489;SDS011;14925;51.026;13.752;2022-10-17T14:41:46;28.73;;;19.63;;
27489;SDS011;14925;51.026;13.752;2022-10-17T14:44:14;28.35;;;19.35;;
27489;SDS011;14925;51.026;13.752;2022-10-17T14:46:43;28.73;;;20.30;;
27489;SDS011;14925;51.026;13.752;2022-10-17T14:49:20;27.13;;;19.17;;
27489;SDS011;14925;51.026;13.752;2022-10-17T14:54:38;23.13;;;18.60;;
27489;SDS011;14925;51.026;13.752;2022-10-17T14:57:08;28.90;;;19.38;;
27489;SDS011;14925;51.026;13.752;2022-10-17T14:59:42;32.38;;;21.05;;
27489;SDS011;14925;51.026;13.752;2022-10-17T15:02:08;29.02;;;20.73;;
27489;SDS011;14925;51.026;13.752;2022-10-17T15:04:34;31.85;;;22.30;;
27489;SDS011;14925;51.026;13.752;2022-10-17T15:06:59;32.08;;;21.30;;
27489;SDS011;14925;51.026;13.752;2022-10-17T15:09:25;30.83;;;21.30;;
27489;SDS011;14925;51.026;13.752;2022-10-17T15:11:53;31.73;;;22.52;;
27489;SDS011;14925;51.026;13.752;2022-10-17T15:14:19;30.25;;;22.00;;
27489;SDS011;14925;51.026;13.752;2022-10-17T15:16:45;32.85;;;22.27;;
27489;SDS011;14925;51.026;13.752;2022-10-17T15:19:11;29.98;;;23.17;;
27489;SDS011;14925;51.026;13.752;2022-10-17T15:21:37;30.90;;;22.95;;
27489;SDS011;14925;51.026;13.752;2022-10-17T15:24:03;34.63;;;23.70;;
27489;SDS011;14925;51.026;13.752;2022-10-17T15:26:30;30.65;;;22.73;;
27489;SDS011;14925;51.026;13.752;2022-10-17T15:28:57;35.65;;;25.15;;
27489;SDS011;14925;51.026;13.752;2022-10-17T15:31:23;33.33;;;23.67;;
27489;SDS011;14925;51.026;13.752;2022-10-17T15:33:50;34.53;;;23.67;;
27489;SDS011;14925;51.026;13.752;2022-10-17T15:36:17;38.78;;;24.35;;
27489;SDS011;14925;51.026;13.752;2022-10-17T15:38:57;34.72;;;24.27;;
27489;SDS011;14925;51.026;13.752;2022-10-17T15:41:24;36.90;;;24.40;;
27489;SDS011;14925;51.026;13.752;2022-10-17T15:43:57;35.92;;;25.27;;
27489;SDS011;14925;51.026;13.752;2022-10-17T15:46:26;37.88;;;25.58;;
27489;SDS011;14925;51.026;13.752;2022-10-17T15:48:53;36.60;;;25.02;;
27489;SDS011;14925;51.026;13.752;2022-10-17T15:51:20;35.20;;;25.50;;
27489;SDS011;14925;51.026;13.752;2022-10-17T15:53:46;40.30;;;28.17;;
27489;SDS011;14925;51.026;13.752;2022-10-17T15:56:24;41.97;;;27.65;;
27489;SDS011;14925;51.026;13.752;2022-10-17T15:58:51;36.45;;;26.13;;
27489;SDS011;14925;51.026;13.752;2022-10-17T16:01:21;40.08;;;26.50;;
27489;SDS011;14925;51.026;13.752;2022-10-17T16:03:51;36.70;;;27.65;;
27489;SDS011;14925;51.026;13.752;2022-10-17T16:06:17;42.20;;;27.73;;
27489;SDS011;14925;51.026;13.752;2022-10-17T16:08:43;38.42;;;27.15;;
27489;SDS011;14925;51.026;13.752;2022-10-17T16:11:16;37.55;;;27.45;;
27489;SDS011;14925;51.026;13.752;2022-10-17T16:16:16;37.95;;;27.05;;
27489;SDS011;14925;51.026;13.752;2022-10-17T16:18:41;40.55;;;27.33;;
27489;SDS011;14925;51.026;13.752;2022-10-17T16:21:08;36.55;;;26.88;;